Time;durP1;ratioP1;P1;durP2;ratioP2;P2;SDS_P1;SDS_P2;PMS_P1;PMS_P2;Temp;Humidity;BMP_temperature;BMP_pressure;BME280_temperature;BME280_humidity;BME280_pressure;Samples;Min_cycle;Max_cycle;Signal;HPM_P1;HPM_P2
2022/04/29 00:02:14;;;;;;;;;22.75;19.00;;;;;15.07;48.53;101835.25;5074721;28;45382;-76
2022/04/29 00:04:40;;;;;;;;;25.25;17.50;;;;;15.07;48.47;101837.06;5074114;28;45385;-75
2022/04/29 00:07:07;;;;;;;;;26.75;24.25;;;;;15.04;48.27;101837.13;5065970;27;45458;-75
2022/04/29 00:09:33;;;;;;;;;6.00;3.50;;;;;15.03;48.81;101828.25;5055568;28;45415;-75
2022/04/29 00:12:01;;;;;;;;;25.50;19.00;;;;;14.98;49.31;101832.78;5056153;28;45510;-75
2022/04/29 00:14:27;;;;;;;;;19.75;18.00;;;;;14.86;49.49;101825.00;5065723;28;45547;-75
2022/04/29 00:16:52;;;;;;;;;24.75;19.25;;;;;14.88;49.25;101828.53;5068229;27;45543;-76
2022/04/29 00:19:17;;;;;;;;;21.00;19.00;;;;;14.78;49.54;101805.66;5071979;28;45500;-75
2022/04/29 00:21:43;;;;;;;;;16.75;13.75;;;;;14.79;49.85;101823.34;5073789;28;45826;-75
2022/04/29 00:24:09;;;;;;;;;28.25;23.75;;;;;14.69;49.94;101823.53;5075322;27;45432;-76
2022/04/29 00:26:36;;;;;;;;;17.50;17.50;;;;;14.65;50.05;101818.28;5073849;27;46024;-76
2022/04/29 00:29:02;;;;;;;;;21.25;17.25;;;;;14.56;50.33;101805.97;5074097;28;45445;-76
2022/04/29 00:31:28;;;;;;;;;19.75;16.50;;;;;14.50;50.41;101800.75;5074319;27;45393;-75
2022/04/29 00:33:54;;;;;;;;;27.50;16.25;;;;;14.45;50.44;101798.19;5075904;27;45445;-75
2022/04/29 00:36:20;;;;;;;;;23.00;21.00;;;;;14.44;50.94;101803.53;5072267;27;46085;-76
2022/04/29 00:38:45;;;;;;;;;21.50;19.50;;;;;14.33;50.88;101793.97;5055787;28;45445;-74
2022/04/29 00:41:16;;;;;;;;;19.00;18.00;;;;;14.34;51.11;101805.47;5062992;28;45690;-75
2022/04/29 00:43:41;;;;;;;;;23.25;22.50;;;;;14.32;51.22;101801.97;5075090;27;45375;-74
2022/04/29 00:46:08;;;;;;;;;23.50;19.25;;;;;14.25;51.68;101800.31;5090762;27;47271;-74
2022/04/29 00:48:34;;;;;;;;;25.25;19.75;;;;;14.17;51.86;101798.63;5074921;28;45332;-76
2022/04/29 00:50:59;;;;;;;;;22.25;17.25;;;;;14.11;51.65;101792.56;5074847;27;45385;-76
2022/04/29 00:53:26;;;;;;;;;25.25;23.50;;;;;14.09;51.75;101797.91;5075483;27;45435;-78
2022/04/29 00:55:55;;;;;;;;;18.00;17.00;;;;;14.03;52.22;101796.19;5074530;27;47205;-78
2022/04/29 00:58:24;;;;;;;;;18.25;11.75;;;;;14.01;52.06;101803.31;5066088;27;45441;-78
2022/04/29 01:00:50;;;;;;;;;25.50;21.50;;;;;13.96;52.38;101805.16;5055223;28;45394;-78
2022/04/29 01:03:15;;;;;;;;;16.50;15.00;;;;;13.89;52.49;101789.31;5055451;28;45487;-79
2022/04/29 01:05:42;;;;;;;;;21.50;21.50;;;;;13.85;52.42;101792.03;5054873;28;45437;-79
2022/04/29 01:08:08;;;;;;;;;27.25;23.00;;;;;13.82;52.97;101788.56;5055582;28;45528;-79
2022/04/29 01:10:33;;;;;;;;;17.75;16.50;;;;;13.77;52.87;101787.72;5062692;28;45390;-79
2022/04/29 01:13:00;;;;;;;;;22.75;20.00;;;;;13.77;53.17;101779.75;5077203;27;45497;-79
2022/04/29 01:15:27;;;;;;;;;22.50;19.00;;;;;13.79;53.08;101780.63;5075647;27;45358;-78
2022/04/29 01:17:55;;;;;;;;;23.25;17.00;;;;;13.76;53.22;101772.69;5061224;27;45474;-78
2022/04/29 01:20:25;;;;;;;;;24.75;18.50;;;;;13.75;53.09;101782.41;5065583;28;45426;-79
2022/04/29 01:22:50;;;;;;;;;21.50;19.00;;;;;13.72;53.09;101779.81;5073614;28;45449;-78
2022/04/29 01:25:15;;;;;;;;;27.50;21.75;;;;;13.66;53.22;101764.84;5074678;27;45412;-78
2022/04/29 01:27:42;;;;;;;;;21.50;14.75;;;;;13.67;52.83;101768.38;5063940;28;45519;-80
2022/04/29 01:30:13;;;;;;;;;27.75;25.50;;;;;13.59;53.58;101763.19;5074279;28;45423;-79
2022/04/29 01:32:40;;;;;;;;;19.50;17.00;;;;;13.53;53.32;101755.28;5055189;27;45417;-80
2022/04/29 01:35:07;;;;;;;;;25.75;18.25;;;;;13.49;53.77;101772.16;5055415;28;46163;-79
2022/04/29 01:37:33;;;;;;;;;24.00;19.75;;;;;13.48;53.28;101770.41;5055264;28;45473;-78
2022/04/29 01:39:59;;;;;;;;;30.00;26.00;;;;;13.47;53.95;101771.31;5054873;28;45536;-79
2022/04/29 01:42:25;;;;;;;;;24.50;22.25;;;;;13.47;54.07;101776.63;5074292;28;45393;-77
2022/04/29 01:44:50;;;;;;;;;28.25;23.50;;;;;13.46;53.27;101783.69;5075648;27;45501;-79
2022/04/29 01:47:16;;;;;;;;;15.50;14.00;;;;;13.40;53.54;101773.16;5054235;27;45514;-79
2022/04/29 01:49:42;;;;;;;;;25.75;23.75;;;;;13.39;53.39;101786.44;5053198;28;45477;-79
2022/04/29 01:52:08;;;;;;;;;24.75;21.50;;;;;13.32;53.58;101765.25;5054505;28;45437;-78
2022/04/29 01:54:37;;;;;;;;;24.25;18.75;;;;;13.37;53.95;101774.97;5053786;28;46358;-79
2022/04/29 01:57:04;;;;;;;;;16.75;14.75;;;;;13.33;53.50;101772.38;5065205;28;45622;-79
2022/04/29 01:59:31;;;;;;;;;28.25;19.50;;;;;13.29;54.02;101769.72;5074970;27;45448;-79
2022/04/29 02:01:57;;;;;;;;;24.00;21.75;;;;;13.27;53.57;101767.09;5066261;27;45430;-78
2022/04/29 02:04:23;;;;;;;;;30.25;21.50;;;;;13.26;53.99;101769.78;5074089;28;46178;-78
2022/04/29 02:06:49;;;;;;;;;29.50;20.75;;;;;13.20;53.81;101769.84;5070240;28;45591;-79
2022/04/29 02:09:14;;;;;;;;;27.75;18.75;;;;;13.23;54.02;101776.00;5057768;27;45465;-79
2022/04/29 02:11:39;;;;;;;;;23.75;19.50;;;;;13.20;54.20;101775.16;5069123;28;45372;-78
2022/04/29 02:14:05;;;;;;;;;27.75;20.75;;;;;13.22;54.16;101779.53;5076692;27;46111;-79
2022/04/29 02:16:31;;;;;;;;;22.50;20.50;;;;;13.22;53.89;101779.53;5061521;27;45649;-79
2022/04/29 02:18:56;;;;;;;;;21.75;17.00;;;;;13.23;54.19;101777.78;5060566;28;45347;-78
2022/04/29 02:21:23;;;;;;;;;24.25;18.75;;;;;13.25;53.76;101783.94;5073371;27;45600;-79
2022/04/29 02:23:48;;;;;;;;;27.25;15.75;;;;;13.18;54.03;101775.19;5062088;27;46397;-78
2022/04/29 02:26:14;;;;;;;;;25.50;20.00;;;;;13.16;53.91;101774.28;5053284;28;45394;-78
2022/04/29 02:28:39;;;;;;;;;31.00;24.00;;;;;13.11;54.14;101776.13;5055764;28;45350;-77
2022/04/29 02:31:04;;;;;;;;;24.50;24.00;;;;;13.07;54.44;101785.03;5068795;28;45422;-78
2022/04/29 02:33:30;;;;;;;;;27.25;23.00;;;;;13.02;54.55;101782.41;5077934;27;46108;-78
2022/04/29 02:35:56;;;;;;;;;18.50;18.25;;;;;13.07;54.53;101798.28;5077278;27;45465;-78
2022/04/29 02:38:22;;;;;;;;;24.75;20.00;;;;;13.07;54.14;101790.34;5077554;28;45532;-79
2022/04/29 02:40:50;;;;;;;;;29.50;24.25;;;;;13.08;54.53;101792.09;5081146;27;45478;-78
2022/04/29 02:43:19;;;;;;;;;23.75;20.00;;;;;13.01;54.68;101791.28;5082180;27;46026;-78
2022/04/29 02:45:46;;;;;;;;;21.00;20.50;;;;;12.97;54.53;101786.91;5073424;28;45356;-78
2022/04/29 02:48:12;;;;;;;;;26.00;20.00;;;;;13.02;54.53;101793.03;5076893;28;45381;-78
2022/04/29 02:50:37;;;;;;;;;21.50;14.00;;;;;12.98;54.27;101792.19;5079227;27;45511;-78
2022/04/29 02:53:02;;;;;;;;;22.25;20.00;;;;;12.89;54.63;101787.00;5079730;27;46674;-78
2022/04/29 02:55:28;;;;;;;;;23.00;17.50;;;;;12.87;54.65;101788.75;5074787;28;45331;-78
2022/04/29 02:57:53;;;;;;;;;27.00;19.50;;;;;12.84;54.96;101785.28;5057182;28;45491;-78
2022/04/29 03:00:19;;;;;;;;;25.00;22.00;;;;;12.79;54.33;101778.25;5058548;28;45704;-78
2022/04/29 03:02:44;;;;;;;;;30.00;21.00;;;;;12.79;54.93;101785.31;5075128;28;45834;-78
2022/04/29 03:05:10;;;;;;;;;29.50;16.50;;;;;12.77;55.20;101776.50;5078239;27;45476;-79
2022/04/29 03:07:35;;;;;;;;;32.75;22.25;;;;;12.76;54.98;101788.00;5066159;27;45236;-79
2022/04/29 03:10:00;;;;;;;;;19.50;15.75;;;;;12.73;54.92;101777.44;5059752;28;45400;-77
2022/04/29 03:12:26;;;;;;;;;23.00;22.00;;;;;12.75;55.14;101794.19;5061257;28;45395;-78
2022/04/29 03:14:51;;;;;;;;;29.00;24.75;;;;;12.76;54.84;101785.34;5058299;28;45361;-78
2022/04/29 03:20:01;;;;;;;;;21.75;19.50;;;;;12.70;55.00;101785.41;5058803;28;45469;-79
2022/04/29 03:22:27;;;;;;;;;23.00;21.75;;;;;12.64;54.57;101775.75;5062266;27;45558;-78
2022/04/29 03:24:54;;;;;;;;;17.75;16.00;;;;;12.64;55.08;101777.53;5056576;28;45271;-78
2022/04/29 03:27:19;;;;;;;;;36.75;24.00;;;;;12.64;54.84;101780.19;5072821;28;45429;-78
2022/04/29 03:29:44;;;;;;;;;26.75;22.25;;;;;12.61;55.04;101773.97;5076818;27;45452;-74
2022/04/29 03:32:10;;;;;;;;;18.75;18.00;;;;;12.65;55.10;101773.94;5063890;27;46353;-75
2022/04/29 03:34:35;;;;;;;;;25.25;21.00;;;;;12.65;55.29;101766.00;5055873;28;45389;-75
2022/04/29 03:37:01;;;;;;;;;28.50;24.25;;;;;12.66;55.05;101762.47;5056167;28;45940;-78
2022/04/29 03:39:26;;;;;;;;;32.25;23.50;;;;;12.66;54.56;101759.81;5055862;28;45447;-75
2022/04/29 03:41:51;;;;;;;;;23.25;18.00;;;;;12.73;54.69;101764.16;5063736;28;46198;-75
2022/04/29 03:44:19;;;;;;;;;1.00;0.00;;;;;12.75;54.87;101757.06;5055949;28;46181;-75
2022/04/29 03:46:44;;;;;;;;;21.50;19.50;;;;;12.73;54.98;101761.50;5056276;28;45497;-75
2022/04/29 03:51:54;;;;;;;;;16.00;15.50;;;;;12.69;54.68;101754.47;5064808;28;45529;-76
2022/04/29 03:54:20;;;;;;;;;26.00;22.50;;;;;12.70;54.85;101743.84;5075649;27;45393;-75
2022/04/29 03:56:46;;;;;;;;;23.50;20.00;;;;;12.56;54.95;101741.34;5076438;27;45355;-75
2022/04/29 03:59:12;;;;;;;;;25.25;18.75;;;;;12.54;54.82;101734.28;5075901;27;45440;-76
2022/04/29 04:01:37;;;;;;;;;15.25;13.00;;;;;12.52;55.17;101728.13;5068090;28;45504;-75
2022/04/29 04:04:04;;;;;;;;;24.50;20.00;;;;;12.48;55.19;101732.59;5055499;28;45473;-75
2022/04/29 04:09:14;;;;;;;;;18.00;16.25;;;;;12.42;55.50;101736.16;5055703;28;45440;-75
2022/04/29 04:11:39;;;;;;;;;24.50;16.50;;;;;12.39;55.51;101727.34;5069189;28;45417;-75
2022/04/29 04:14:04;;;;;;;;;21.00;18.25;;;;;12.38;55.49;101734.44;5055994;28;45434;-74
2022/04/29 04:16:30;;;;;;;;;29.75;24.75;;;;;12.40;55.58;101734.41;5053064;28;45661;-75
2022/04/29 04:18:55;;;;;;;;;19.50;15.75;;;;;12.40;55.48;101729.13;5054942;28;45485;-75
2022/04/29 04:21:21;;;;;;;;;31.50;28.50;;;;;12.37;55.71;101731.78;5058495;28;46157;-76
2022/04/29 04:23:46;;;;;;;;;21.75;16.00;;;;;12.36;55.78;101732.69;5063148;28;45489;-74
2022/04/29 04:26:11;;;;;;;;;28.25;22.00;;;;;12.35;55.41;101725.63;5053143;28;45500;-76
2022/04/29 04:28:37;;;;;;;;;21.50;18.00;;;;;12.38;55.14;101739.72;5055373;28;45563;-75
2022/04/29 04:31:02;;;;;;;;;30.75;24.00;;;;;12.41;55.25;101738.84;5055143;28;46949;-76
2022/04/29 04:33:28;;;;;;;;;20.25;16.25;;;;;12.41;55.56;101747.66;5054953;28;45498;-75
2022/04/29 04:35:53;;;;;;;;;25.00;22.00;;;;;12.39;55.30;101745.91;5055113;28;45461;-75
2022/04/29 04:38:18;;;;;;;;;20.50;20.50;;;;;12.40;55.47;101739.72;5055867;28;45417;-74
2022/04/29 04:40:44;;;;;;;;;18.75;16.50;;;;;12.33;55.83;101743.31;5056134;28;46133;-75
2022/04/29 04:43:09;;;;;;;;;22.50;22.50;;;;;12.30;55.57;101746.00;5055676;28;45554;-75
2022/04/29 04:45:34;;;;;;;;;30.75;21.50;;;;;12.29;55.65;101749.56;5054419;28;45603;-76
2022/04/29 04:48:00;;;;;;;;;29.00;19.25;;;;;12.27;55.84;101745.13;5055017;28;45521;-75
2022/04/29 04:50:25;;;;;;;;;24.25;17.75;;;;;12.25;55.40;101752.22;5054582;28;45980;-75
2022/04/29 04:52:50;;;;;;;;;32.75;27.25;;;;;12.23;55.50;101747.81;5054540;28;45378;-76
2022/04/29 04:55:16;;;;;;;;;21.75;18.75;;;;;12.22;55.76;101752.25;5052645;28;45461;-75
2022/04/29 04:57:42;;;;;;;;;28.25;17.75;;;;;12.21;55.92;101750.50;5054825;28;45458;-76
2022/04/29 05:00:08;;;;;;;;;25.00;20.00;;;;;12.22;55.36;101752.25;5066845;28;45364;-76
2022/04/29 05:02:33;;;;;;;;;28.50;21.25;;;;;12.21;55.68;101755.78;5070360;27;45425;-74
2022/04/29 05:04:59;;;;;;;;;25.50;20.00;;;;;12.19;55.58;101749.63;5074814;27;45247;-75
2022/04/29 05:07:25;;;;;;;;;23.00;23.00;;;;;12.17;55.81;101759.34;5075476;27;45311;-76
2022/04/29 05:09:51;;;;;;;;;22.75;19.50;;;;;12.11;55.34;101750.56;5064247;27;45613;-75
2022/04/29 05:12:16;;;;;;;;;26.00;22.50;;;;;12.14;55.62;101759.38;5062135;28;45413;-75
2022/04/29 05:14:41;;;;;;;;;24.50;20.50;;;;;12.14;55.70;101764.66;5075316;27;45467;-75
2022/04/29 05:17:07;;;;;;;;;32.50;21.75;;;;;12.18;55.93;101761.13;5057011;27;45693;-76
2022/04/29 05:19:32;;;;;;;;;13.00;10.00;;;;;12.14;55.79;101754.06;5054824;28;45393;-77
2022/04/29 05:21:57;;;;;;;;;20.00;17.00;;;;;12.12;55.65;101760.28;5057453;28;45442;-74
2022/04/29 05:24:23;;;;;;;;;15.50;15.50;;;;;12.10;55.75;101757.66;5071775;27;45415;-76
2022/04/29 05:26:48;;;;;;;;;27.50;22.25;;;;;12.07;55.88;101762.94;5074702;27;45723;-75
2022/04/29 05:29:13;;;;;;;;;27.00;22.50;;;;;12.09;55.77;101759.41;5074328;27;46001;-74
2022/04/29 05:31:39;;;;;;;;;24.75;21.50;;;;;12.07;55.75;101755.00;5072678;28;45420;-77
2022/04/29 05:34:06;;;;;;;;;22.50;21.50;;;;;12.14;56.15;101769.09;5064251;28;45585;-76
2022/04/29 05:36:33;;;;;;;;;21.50;19.00;;;;;12.11;55.99;101769.13;5054807;28;45463;-79
2022/04/29 05:44:27;;;;;;;;;21.50;19.00;;;;;12.12;56.05;101777.06;5069893;28;45397;-81
2022/04/29 05:46:53;;;;;;;;;29.75;22.00;;;;;12.15;55.41;101777.03;5055021;28;45653;-79
2022/04/29 05:49:18;;;;;;;;;21.50;18.75;;;;;12.13;55.84;101772.63;5072401;28;46093;-80
2022/04/29 05:51:43;;;;;;;;;16.50;15.50;;;;;12.19;55.59;101784.09;5073425;27;45425;-79
2022/04/29 05:54:09;;;;;;;;;22.00;16.25;;;;;12.17;55.52;101779.69;5054905;28;45401;-80
2022/04/29 05:56:34;;;;;;;;;21.75;18.25;;;;;12.20;55.43;101777.00;5065205;28;45388;-80
2022/04/29 05:59:00;;;;;;;;;16.50;15.00;;;;;12.22;55.17;101783.16;5074837;27;45351;-80
2022/04/29 06:01:25;;;;;;;;;22.50;17.75;;;;;12.26;54.78;101783.13;5067393;27;45430;-80
2022/04/29 06:03:50;;;;;;;;;26.25;20.00;;;;;12.34;55.02;101788.38;5072079;28;45329;-80
2022/04/29 06:06:16;;;;;;;;;18.00;18.00;;;;;12.33;55.33;101783.06;5077681;27;45593;-79
2022/04/29 06:08:41;;;;;;;;;18.00;16.00;;;;;12.34;55.12;101792.78;5079803;27;45979;-79
2022/04/29 06:11:06;;;;;;;;;29.25;21.50;;;;;12.36;55.02;101801.59;5079668;27;45616;-79
2022/04/29 06:13:32;;;;;;;;;26.50;20.00;;;;;12.36;55.02;101796.31;5070440;27;45462;-79
2022/04/29 06:15:59;;;;;;;;;18.75;18.25;;;;;12.44;55.05;101808.63;5064543;28;45464;-76
2022/04/29 06:18:24;;;;;;;;;25.75;20.50;;;;;12.51;54.65;101806.81;5057188;28;46084;-77
2022/04/29 06:20:50;;;;;;;;;26.00;21.75;;;;;12.50;54.78;101805.03;5056932;28;45402;-76
2022/04/29 06:23:16;;;;;;;;;21.00;15.75;;;;;12.46;54.37;101798.00;5058104;28;45400;-75
2022/04/29 06:25:42;;;;;;;;;24.75;21.25;;;;;12.54;54.59;101805.88;5069657;28;45459;-76
2022/04/29 06:28:07;;;;;;;;;23.00;19.00;;;;;12.54;54.31;101809.44;5057431;28;45408;-79
2022/04/29 06:30:32;;;;;;;;;27.75;21.75;;;;;12.61;54.28;101807.59;5057712;28;45368;-80
2022/04/29 06:32:58;;;;;;;;;25.75;22.50;;;;;12.60;54.09;101805.81;5057577;28;45393;-80
2022/04/29 06:35:25;;;;;;;;;31.25;22.75;;;;;12.53;54.20;101799.72;5058242;28;45338;-81
2022/04/29 06:37:50;;;;;;;;;26.75;21.75;;;;;12.55;54.51;101802.34;5067785;28;46156;-80
2022/04/29 06:40:15;;;;;;;;;30.00;21.75;;;;;12.56;53.95;101804.13;5085090;27;45372;-79
2022/04/29 06:42:45;;;;;;;;;25.25;18.25;;;;;12.58;54.50;101818.22;5084713;27;45383;-79
2022/04/29 06:45:11;;;;;;;;;26.75;22.25;;;;;12.60;54.39;101820.00;5083742;27;45599;-79
2022/04/29 06:47:36;;;;;;;;;26.25;24.25;;;;;12.62;54.51;101815.53;5057139;28;45444;-80
2022/04/29 06:50:02;;;;;;;;;24.75;20.75;;;;;12.69;54.19;101821.66;5057489;28;45526;-76
2022/04/29 06:52:27;;;;;;;;;33.25;23.75;;;;;12.80;54.39;101814.50;5057720;28;45506;-78
2022/04/29 06:54:54;;;;;;;;;35.25;29.00;;;;;12.82;54.02;101811.81;5062862;27;45453;-81
2022/04/29 06:57:19;;;;;;;;;36.25;26.00;;;;;12.81;54.09;101812.72;5078348;27;46537;-80
2022/04/29 06:59:45;;;;;;;;;25.00;21.75;;;;;12.86;54.10;101818.88;5083574;27;45483;-80
2022/04/29 07:02:10;;;;;;;;;25.25;23.50;;;;;12.90;53.47;101820.56;5083939;27;45528;-80
2022/04/29 07:04:35;;;;;;;;;27.25;24.00;;;;;12.86;53.96;101818.88;5057872;28;45263;-80
2022/04/29 07:07:01;;;;;;;;;26.75;19.75;;;;;12.86;53.85;101816.22;5057333;28;45488;-80
2022/04/29 07:09:26;;;;;;;;;26.50;21.00;;;;;12.89;54.32;101816.19;5074158;27;45433;-79
2022/04/29 07:11:51;;;;;;;;;26.50;18.50;;;;;12.94;53.78;101819.66;5076721;27;45279;-81
2022/04/29 07:14:18;;;;;;;;;27.75;21.25;;;;;12.94;53.98;101806.38;5074213;27;45594;-80
2022/04/29 07:16:43;;;;;;;;;26.00;18.75;;;;;13.01;53.82;101820.47;5068630;27;45425;-80
2022/04/29 07:19:09;;;;;;;;;17.50;13.00;;;;;12.97;53.57;101816.09;5068938;27;45422;-80
2022/04/29 07:21:34;;;;;;;;;27.25;20.25;;;;;12.97;53.83;101816.97;5066056;28;45492;-79
2022/04/29 07:23:59;;;;;;;;;31.50;21.50;;;;;12.96;53.92;101819.66;5068228;28;45545;-79
2022/04/29 07:26:25;;;;;;;;;35.00;24.00;;;;;12.96;54.37;101830.25;5057318;28;45972;-74
2022/04/29 07:28:50;;;;;;;;;12.75;10.75;;;;;13.00;54.01;101841.72;5073258;28;45359;-75
2022/04/29 07:31:16;;;;;;;;;31.75;22.50;;;;;13.00;54.15;101834.66;5065009;27;45579;-77
2022/04/29 07:33:41;;;;;;;;;18.75;14.50;;;;;13.01;53.93;101838.16;5081511;27;45777;-76
2022/04/29 07:41:47;;;;;;;;;32.50;16.50;;;;;13.29;53.26;101844.94;5071726;28;45404;-76
2022/04/29 07:44:13;;;;;;;;;23.00;20.50;;;;;13.32;53.32;101850.22;5076855;27;45243;-79
2022/04/29 07:46:43;;;;;;;;;31.25;20.50;;;;;13.42;53.40;101839.53;5072216;27;47499;-81
2022/04/29 07:49:09;;;;;;;;;26.00;18.25;;;;;13.51;53.06;101834.09;5063024;28;45469;-79
2022/04/29 07:51:35;;;;;;;;;28.50;23.00;;;;;13.60;53.25;101825.16;5070673;28;45442;-79
2022/04/29 07:54:00;;;;;;;;;29.50;24.00;;;;;13.70;52.63;101828.56;5056590;28;45480;-79
2022/04/29 07:56:26;;;;;;;;;20.75;20.00;;;;;13.77;52.83;101819.59;5062446;28;46338;-79
2022/04/29 07:58:51;;;;;;;;;33.00;26.75;;;;;13.79;52.65;101825.78;5062722;27;45515;-79
2022/04/29 08:01:16;;;;;;;;;32.25;29.00;;;;;13.66;53.04;101820.66;5067562;27;45659;-79
2022/04/29 08:03:42;;;;;;;;;35.75;24.50;;;;;13.72;52.78;101829.44;5070656;27;45474;-79
2022/04/29 08:06:08;;;;;;;;;29.50;24.00;;;;;13.76;53.31;101836.47;5058665;27;45345;-79
2022/04/29 08:08:34;;;;;;;;;32.50;27.25;;;;;13.78;53.21;101832.88;5061820;27;45376;-79
2022/04/29 08:11:00;;;;;;;;;24.25;20.00;;;;;13.86;52.69;101836.31;5059654;28;45381;-80
2022/04/29 08:13:27;;;;;;;;;33.00;33.00;;;;;13.94;53.23;101832.66;5070436;28;45458;-76
2022/04/29 08:15:53;;;;;;;;;40.75;27.00;;;;;14.09;52.85;101832.44;5061728;27;46112;-79
2022/04/29 08:18:19;;;;;;;;;33.25;28.25;;;;;14.32;52.49;101829.44;5056911;28;45519;-79
2022/04/29 08:20:45;;;;;;;;;32.75;28.50;;;;;14.52;51.98;101822.91;5062864;27;45473;-79
2022/04/29 08:23:10;;;;;;;;;33.00;30.50;;;;;14.72;51.50;101818.16;5072085;28;45425;-79
2022/04/29 08:25:36;;;;;;;;;36.25;28.25;;;;;15.08;51.03;101825.50;5073628;27;46038;-79
2022/04/29 08:28:02;;;;;;;;;39.25;33.75;;;;;15.26;50.15;101825.16;5070340;27;45428;-80
2022/04/29 08:30:31;;;;;;;;;38.25;32.50;;;;;15.36;49.83;101820.50;5062821;28;45473;-80
2022/04/29 08:32:59;;;;;;;;;35.75;32.75;;;;;15.59;49.65;101822.72;5068785;28;45641;-80
2022/04/29 08:35:25;;;;;;;;;38.75;35.25;;;;;15.63;49.30;101829.69;5062633;28;46257;-79
2022/04/29 08:37:51;;;;;;;;;35.50;32.75;;;;;15.63;49.16;101831.50;5062924;27;45550;-80
2022/04/29 08:40:17;;;;;;;;;38.50;34.00;;;;;15.75;48.62;101833.91;5056872;27;45404;-79
2022/04/29 08:42:43;;;;;;;;;34.00;28.25;;;;;16.03;48.82;101838.63;5067201;27;45439;-79
2022/04/29 08:45:13;;;;;;;;;46.25;37.75;;;;;16.65;48.03;101840.69;5058254;28;46128;-81
2022/04/29 08:47:40;;;;;;;;;44.50;35.00;;;;;17.29;46.26;101844.41;5066054;28;45494;-76
2022/04/29 08:50:11;;;;;;;;;41.75;30.50;;;;;17.44;45.09;101835.94;5069256;28;45515;-75
2022/04/29 08:52:37;;;;;;;;;38.25;31.50;;;;;17.41;45.22;101838.72;5062150;28;45282;-77
2022/04/29 09:00:32;;;;;;;;;44.50;36.75;;;;;19.95;40.59;101832.00;5055730;28;45402;-77
2022/04/29 09:03:00;;;;;;;;;53.50;40.00;;;;;20.74;38.63;101829.66;5067247;28;45580;-76
2022/04/29 09:05:26;;;;;;;;;32.75;23.75;;;;;21.05;38.34;101820.25;5064315;28;46086;-78
2022/04/29 09:08:00;;;;;;;;;39.50;34.25;;;;;20.86;37.66;101824.69;5067840;28;45430;-77
2022/04/29 09:10:29;;;;;;;;;32.50;32.50;;;;;20.52;38.55;101816.25;5062478;28;45493;-76
2022/04/29 09:12:55;;;;;;;;;40.75;33.25;;;;;20.66;38.37;101821.03;5070721;28;45527;-77
2022/04/29 09:15:21;;;;;;;;;36.75;32.25;;;;;20.63;38.06;101813.09;5061049;28;45971;-76
2022/04/29 09:17:51;;;;;;;;;45.00;33.00;;;;;20.63;38.14;101817.59;5055922;27;45538;-77
2022/04/29 09:20:19;;;;;;;;;43.00;34.25;;;;;20.93;38.07;101826.19;5063673;28;45500;-77
2022/04/29 09:22:50;;;;;;;;;44.00;37.50;;;;;21.40;37.65;101793.59;5064042;28;45386;-76
2022/04/29 09:25:16;;;;;;;;;14.50;8.75;;;;;22.32;36.80;101814.41;5060039;28;45584;-76
2022/04/29 09:28:03;;;;;;;;;39.75;35.50;;;;;23.06;35.10;101807.88;5057474;28;45562;-84
2022/04/29 09:30:33;;;;;;;;;39.75;35.50;;;;;23.50;34.13;101803.75;5067061;27;45386;-76
2022/04/29 09:32:59;;;;;;;;;26.75;18.50;;;;;23.75;33.43;101808.66;5059768;28;45455;-76
2022/04/29 09:35:42;;;;;;;;;42.50;37.75;;;;;24.13;33.10;101808.34;5063871;28;46272;-77
2022/04/29 09:41:00;;;;;;;;;37.25;31.75;;;;;23.77;33.03;101804.03;5064765;28;45416;-82
2022/04/29 09:43:44;;;;;;;;;40.75;35.00;;;;;23.66;32.95;101798.41;5069563;28;45422;-79
2022/04/29 09:46:09;;;;;;;;;42.25;37.75;;;;;23.85;33.56;101799.09;5069756;27;45485;-81
2022/04/29 09:48:54;;;;;;;;;46.00;34.00;;;;;24.01;32.66;101793.72;5066339;28;45365;-80
2022/04/29 09:51:45;;;;;;;;;41.75;36.00;;;;;24.08;32.58;101784.31;5063247;28;45407;-80
2022/04/29 09:54:17;;;;;;;;;35.25;31.75;;;;;24.23;32.69;101790.66;5065938;28;45477;-79
2022/04/29 09:57:01;;;;;;;;;28.75;27.50;;;;;24.22;32.18;101788.03;5058193;27;45488;-81
2022/04/29 09:59:31;;;;;;;;;32.75;29.75;;;;;24.29;32.04;101795.69;5067811;27;45391;-80
2022/04/29 10:01:57;;;;;;;;;36.00;30.00;;;;;23.93;31.61;101782.50;5062694;28;45380;-79
2022/04/29 10:04:23;;;;;;;;;25.00;25.00;;;;;23.40;33.04;101784.53;5064103;28;45549;-80
2022/04/29 10:06:49;;;;;;;;;40.50;35.75;;;;;23.10;32.89;101782.53;5067037;27;46704;-81
2022/04/29 10:09:17;;;;;;;;;36.25;33.75;;;;;23.06;33.78;101781.81;5065890;28;45544;-76
2022/04/29 10:11:44;;;;;;;;;43.00;35.50;;;;;22.82;33.78;101786.69;5064675;28;45505;-75
2022/04/29 10:14:16;;;;;;;;;36.75;31.00;;;;;22.49;34.12;101800.94;5063174;27;45414;-76
2022/04/29 10:16:45;;;;;;;;;30.25;23.00;;;;;22.24;35.17;101773.47;5070175;28;46076;-77
2022/04/29 10:22:03;;;;;;;;;35.50;24.75;;;;;22.37;34.92;101798.88;5068004;28;45244;-77
2022/04/29 10:24:29;;;;;;;;;35.00;29.25;;;;;22.34;35.30;101793.63;5059632;28;45459;-76
2022/04/29 10:26:56;;;;;;;;;33.75;32.00;;;;;22.56;34.40;101771.00;5058508;28;46969;-76
2022/04/29 10:29:22;;;;;;;;;36.25;33.50;;;;;22.61;33.85;101798.56;5056861;27;45532;-77
2022/04/29 10:32:20;;;;;;;;;37.50;29.25;;;;;22.63;34.38;101802.06;5066562;28;45542;-75
2022/04/29 10:34:45;;;;;;;;;43.75;33.25;;;;;22.65;33.92;101783.97;5028444;28;45570;-76
2022/04/29 10:37:14;;;;;;;;;35.00;29.75;;;;;22.61;34.01;101798.56;5028638;28;45409;-77
2022/04/29 10:39:40;;;;;;;;;33.25;31.25;;;;;22.47;33.85;101792.06;5027384;28;45526;-76
2022/04/29 10:42:08;;;;;;;;;48.50;36.00;;;;;22.54;34.09;101788.09;5007768;28;45519;-77
2022/04/29 10:44:35;;;;;;;;;20.75;16.25;;;;;22.95;33.61;101792.28;5019957;28;45464;-77
2022/04/29 10:47:41;;;;;;;;;32.50;32.50;;;;;23.22;33.54;101789.09;5015289;28;46386;-78
2022/04/29 10:50:29;;;;;;;;;28.25;26.50;;;;;23.40;32.66;101784.53;5020262;28;45472;-77
2022/04/29 10:53:11;;;;;;;;;25.00;23.25;;;;;23.46;32.58;101778.78;5013289;28;45471;-78
2022/04/29 10:55:43;;;;;;;;;34.75;33.25;;;;;23.72;32.47;101773.75;5022427;28;45580;-77
2022/04/29 10:58:19;;;;;;;;;30.25;24.75;;;;;23.86;32.17;101776.56;5019317;28;45787;-77
2022/04/29 11:01:14;;;;;;;;;40.00;32.75;;;;;23.86;32.39;101779.25;5019569;28;45534;-77
2022/04/29 11:03:41;;;;;;;;;37.00;34.25;;;;;23.81;32.95;101781.34;5015467;28;45624;-77
2022/04/29 11:06:09;;;;;;;;;26.75;23.00;;;;;23.88;32.69;101771.97;5016386;28;45492;-76
2022/04/29 11:08:34;;;;;;;;;30.75;27.50;;;;;24.18;32.41;101784.63;5021575;28;46250;-77
2022/04/29 11:11:00;;;;;;;;;28.75;25.25;;;;;24.40;32.04;101781.53;5053143;28;45645;-76
2022/04/29 11:13:30;;;;;;;;;35.50;32.25;;;;;24.88;30.96;101773.28;5069241;28;45423;-80
2022/04/29 11:16:13;;;;;;;;;31.25;27.50;;;;;25.03;30.24;101762.47;5067693;28;45543;-77
2022/04/29 11:18:42;;;;;;;;;30.50;30.50;;;;;24.96;31.00;101775.50;5064573;27;45350;-77
2022/04/29 11:26:46;;;;;;;;;35.25;26.00;;;;;24.22;31.36;101770.00;5064452;28;45485;-78
2022/04/29 11:29:13;;;;;;;;;35.25;31.50;;;;;23.99;31.89;101776.75;5060268;27;45431;-75
2022/04/29 11:31:39;;;;;;;;;33.25;25.25;;;;;24.22;31.59;101767.28;5060325;27;45611;-78
2022/04/29 11:34:09;;;;;;;;;26.25;21.75;;;;;24.48;31.50;101760.31;5076603;27;45578;-80
2022/04/29 11:36:35;;;;;;;;;33.00;31.75;;;;;24.67;30.92;101759.22;5075657;27;45307;-81
2022/04/29 11:39:03;;;;;;;;;35.00;27.75;;;;;24.85;30.74;101759.94;5069425;28;45382;-80
2022/04/29 11:41:30;;;;;;;;;30.50;30.00;;;;;24.90;30.67;101759.66;5067476;27;45355;-80
2022/04/29 11:43:56;;;;;;;;;29.00;28.00;;;;;25.05;30.70;101750.59;5062092;28;45476;-78
2022/04/29 11:46:21;;;;;;;;;28.25;25.50;;;;;25.02;30.75;101748.06;5073008;28;45377;-81